桃園國際機場 - ATIS

METAR RCTP 251030Z 05020KT 9999 FEW008 BKN012 BKN018 26/23 Q1010 WS R05R NOSIG RMK A2984=

站台狀態:Online
最後更新:2022-09-25 18:30:01